Time;durP1;ratioP1;P1;durP2;ratioP2;P2;SDS_P1;SDS_P2;PMS_P1;PMS_P2;Temp;Humidity;BMP_temperature;BMP_pressure;BME280_temperature;BME280_humidity;BME280_pressure;Samples;Min_cycle;Max_cycle;Signal;HPM_P1;HPM_P2
2023/03/24 00:01:51;;;;;;;14.03;10.40;;;;;;;;;;726332;191;629410;-81
2023/03/24 00:04:17;;;;;;;14.53;10.17;;;;;;;;;;727093;191;637546;-79
2023/03/24 00:06:43;;;;;;;18.37;13.03;;;;;;;;;;731030;191;642580;-80
2023/03/24 00:09:09;;;;;;;17.10;11.07;;;;;;;;;;727459;194;628237;-80
2023/03/24 00:11:35;;;;;;;19.67;12.07;;;;;;;;;;729356;191;643062;-77
2023/03/24 00:14:01;;;;;;;25.23;13.23;;;;;;;;;;737920;191;637983;-79
2023/03/24 00:16:27;;;;;;;17.67;11.83;;;;;;;;;;735789;190;650349;-80
2023/03/24 00:18:53;;;;;;;14.80;11.67;;;;;;;;;;738177;191;629267;-78
2023/03/24 00:21:20;;;;;;;17.07;11.77;;;;;;;;;;737567;191;627217;-79
2023/03/24 00:23:46;;;;;;;18.47;12.27;;;;;;;;;;739606;189;625201;-80
2023/03/24 00:26:14;;;;;;;16.00;11.37;;;;;;;;;;733755;193;624633;-79
2023/03/24 00:28:36;;;;;;;20.90;12.37;;;;;;;;;;737223;191;631774;-77
2023/03/24 00:31:02;;;;;;;18.53;12.23;;;;;;;;;;729037;195;634001;-80
2023/03/24 00:33:30;;;;;;;18.40;12.07;;;;;;;;;;735824;191;638171;-80
2023/03/24 00:35:56;;;;;;;20.40;12.83;;;;;;;;;;737218;188;625613;-80
2023/03/24 00:38:22;;;;;;;19.73;11.70;;;;;;;;;;728880;191;635898;-80
2023/03/24 00:40:47;;;;;;;16.83;11.40;;;;;;;;;;728431;193;631480;-76
2023/03/24 00:43:12;;;;;;;23.03;13.57;;;;;;;;;;726223;194;619386;-78
2023/03/24 00:45:44;;;;;;;20.33;11.60;;;;;;;;;;726272;192;635266;-80
2023/03/24 00:48:05;;;;;;;16.83;11.93;;;;;;;;;;739755;190;630994;-80
2023/03/24 00:50:32;;;;;;;15.40;12.17;;;;;;;;;;740880;188;631714;-79
2023/03/24 00:52:57;;;;;;;15.43;11.57;;;;;;;;;;733210;190;650919;-79
2023/03/24 00:55:22;;;;;;;21.77;12.33;;;;;;;;;;731639;193;644336;-77
2023/03/24 00:57:49;;;;;;;18.33;12.70;;;;;;;;;;736030;190;628601;-78
2023/03/24 01:00:18;;;;;;;23.20;13.20;;;;;;;;;;742798;190;629366;-79
2023/03/24 01:02:42;;;;;;;20.17;13.40;;;;;;;;;;732819;190;628294;-80
2023/03/24 01:05:07;;;;;;;22.30;13.07;;;;;;;;;;729637;195;630063;-80
2023/03/24 01:07:32;;;;;;;19.43;12.37;;;;;;;;;;732801;191;640940;-80
2023/03/24 01:09:58;;;;;;;23.07;12.83;;;;;;;;;;736575;190;631478;-79
2023/03/24 01:12:24;;;;;;;15.73;11.30;;;;;;;;;;730213;191;627230;-79
2023/03/24 01:14:51;;;;;;;14.60;11.57;;;;;;;;;;725976;195;627200;-80
2023/03/24 01:17:18;;;;;;;18.47;12.13;;;;;;;;;;725602;193;659149;-78
2023/03/24 01:19:42;;;;;;;13.43;11.93;;;;;;;;;;729410;195;640327;-80
2023/03/24 01:22:07;;;;;;;17.33;12.17;;;;;;;;;;728229;191;623821;-80
2023/03/24 01:24:33;;;;;;;16.97;12.47;;;;;;;;;;739384;191;616215;-80
2023/03/24 01:26:59;;;;;;;19.80;13.13;;;;;;;;;;737034;191;634482;-79
2023/03/24 01:29:25;;;;;;;16.20;11.57;;;;;;;;;;729946;191;625005;-80
2023/03/24 01:31:51;;;;;;;17.07;11.83;;;;;;;;;;727252;194;613198;-80
2023/03/24 01:34:17;;;;;;;19.90;13.40;;;;;;;;;;727110;193;625551;-80
2023/03/24 01:36:43;;;;;;;15.23;11.93;;;;;;;;;;730828;191;631562;-80
2023/03/24 01:39:08;;;;;;;22.20;12.10;;;;;;;;;;736863;191;628743;-79
2023/03/24 01:41:35;;;;;;;17.07;13.13;;;;;;;;;;736992;191;630591;-78
2023/03/24 01:44:00;;;;;;;19.20;14.00;;;;;;;;;;731430;191;619496;-79
2023/03/24 01:46:28;;;;;;;18.23;12.67;;;;;;;;;;727234;193;622543;-80
2023/03/24 01:48:52;;;;;;;23.20;12.90;;;;;;;;;;727113;191;636386;-79
2023/03/24 01:51:22;;;;;;;23.60;14.07;;;;;;;;;;731309;188;642708;-80
2023/03/24 01:53:57;;;;;;;19.57;13.80;;;;;;;;;;730323;194;624821;-80
2023/03/24 01:56:23;;;;;;;16.47;13.10;;;;;;;;;;726744;195;630150;-80
2023/03/24 01:58:48;;;;;;;17.60;13.33;;;;;;;;;;741055;189;623223;-80
2023/03/24 02:01:14;;;;;;;23.23;13.40;;;;;;;;;;743456;189;634302;-80
2023/03/24 02:03:40;;;;;;;19.70;14.03;;;;;;;;;;744783;187;635752;-80
2023/03/24 02:06:07;;;;;;;20.23;12.60;;;;;;;;;;740203;190;628311;-78
2023/03/24 02:08:32;;;;;;;20.50;12.97;;;;;;;;;;732225;191;626701;-81
2023/03/24 02:10:58;;;;;;;22.20;14.20;;;;;;;;;;731061;191;627810;-79
2023/03/24 02:13:24;;;;;;;17.93;13.37;;;;;;;;;;734154;191;626464;-80
2023/03/24 02:16:06;;;;;;;21.70;13.90;;;;;;;;;;738513;191;630350;-78
2023/03/24 02:18:32;;;;;;;19.40;13.90;;;;;;;;;;731703;190;634163;-78
2023/03/24 02:21:01;;;;;;;18.67;13.90;;;;;;;;;;744762;190;621102;-80
2023/03/24 02:23:42;;;;;;;18.30;13.50;;;;;;;;;;731554;190;631808;-80
2023/03/24 02:26:13;;;;;;;17.03;14.30;;;;;;;;;;731138;191;625247;-80
2023/03/24 02:28:57;;;;;;;18.73;14.40;;;;;;;;;;728016;191;627055;-80
2023/03/24 02:31:27;;;;;;;22.33;14.17;;;;;;;;;;739408;190;647184;-80
2023/03/24 02:33:58;;;;;;;26.83;15.57;;;;;;;;;;730617;191;633574;-79
2023/03/24 02:36:31;;;;;;;30.83;15.30;;;;;;;;;;727451;194;622304;-80
2023/03/24 02:39:01;;;;;;;20.20;15.60;;;;;;;;;;735785;188;626638;-80
2023/03/24 02:41:30;;;;;;;18.83;14.20;;;;;;;;;;737165;190;647676;-80
2023/03/24 02:44:08;;;;;;;24.30;16.60;;;;;;;;;;728934;191;630118;-80
2023/03/24 02:46:34;;;;;;;29.63;16.33;;;;;;;;;;725579;193;632401;-80
2023/03/24 02:49:10;;;;;;;27.15;17.70;;;;;;;;;;738075;190;633747;-80
2023/03/24 02:51:38;;;;;;;35.00;20.53;;;;;;;;;;737558;190;635396;-80
2023/03/24 02:54:08;;;;;;;35.90;22.03;;;;;;;;;;728897;190;637540;-79
2023/03/24 02:56:37;;;;;;;28.73;20.27;;;;;;;;;;725442;195;630746;-80
2023/03/24 02:59:03;;;;;;;28.57;20.50;;;;;;;;;;738368;190;628666;-78
2023/03/24 03:01:31;;;;;;;35.00;23.43;;;;;;;;;;744615;190;629421;-80
2023/03/24 03:03:56;;;;;;;29.20;22.00;;;;;;;;;;728326;190;638180;-78
2023/03/24 03:06:23;;;;;;;31.70;23.17;;;;;;;;;;725558;195;627155;-81
2023/03/24 03:08:49;;;;;;;29.40;21.23;;;;;;;;;;727419;193;637942;-80
2023/03/24 03:11:15;;;;;;;36.13;23.03;;;;;;;;;;733254;193;631218;-79
2023/03/24 03:13:41;;;;;;;29.90;19.87;;;;;;;;;;736659;187;638669;-80
2023/03/24 03:16:08;;;;;;;34.10;21.90;;;;;;;;;;743035;184;650041;-79
2023/03/24 03:18:42;;;;;;;32.33;22.33;;;;;;;;;;740652;187;649979;-79
2023/03/24 03:21:08;;;;;;;28.63;20.60;;;;;;;;;;726729;195;625036;-80
2023/03/24 03:23:35;;;;;;;27.10;21.00;;;;;;;;;;733327;190;657920;-80
2023/03/24 03:26:03;;;;;;;25.77;19.40;;;;;;;;;;740372;190;640927;-81
2023/03/24 03:28:28;;;;;;;34.80;22.30;;;;;;;;;;736912;191;629223;-81
2023/03/24 03:30:53;;;;;;;28.53;22.00;;;;;;;;;;726038;195;631181;-80
2023/03/24 03:33:23;;;;;;;27.90;20.90;;;;;;;;;;731480;191;642225;-80
2023/03/24 03:35:45;;;;;;;26.40;19.90;;;;;;;;;;742983;191;626875;-79
2023/03/24 03:38:13;;;;;;;27.83;21.23;;;;;;;;;;738810;191;631991;-80
2023/03/24 03:40:41;;;;;;;29.33;20.13;;;;;;;;;;737236;191;643413;-80
2023/03/24 03:43:07;;;;;;;30.80;22.40;;;;;;;;;;735666;191;636956;-80
2023/03/24 03:45:33;;;;;;;42.00;20.33;;;;;;;;;;729320;192;627737;-79
2023/03/24 03:47:59;;;;;;;33.47;21.37;;;;;;;;;;727722;191;624186;-80
2023/03/24 03:50:25;;;;;;;32.67;23.00;;;;;;;;;;738621;191;674658;-78
2023/03/24 03:52:51;;;;;;;34.17;21.93;;;;;;;;;;742514;190;620168;-80
2023/03/24 03:55:17;;;;;;;32.53;22.27;;;;;;;;;;737007;190;646337;-80
2023/03/24 03:57:42;;;;;;;29.07;19.90;;;;;;;;;;728975;191;829082;-78
2023/03/24 04:00:10;;;;;;;30.90;20.70;;;;;;;;;;730673;191;639804;-79
2023/03/24 04:02:41;;;;;;;28.83;21.17;;;;;;;;;;729398;191;625315;-81
2023/03/24 04:05:07;;;;;;;32.13;21.27;;;;;;;;;;728479;189;637482;-81
2023/03/24 04:07:34;;;;;;;30.73;21.77;;;;;;;;;;736671;190;649569;-79
2023/03/24 04:10:05;;;;;;;35.93;21.50;;;;;;;;;;740398;190;619293;-81
2023/03/24 04:12:46;;;;;;;26.97;20.00;;;;;;;;;;727664;191;649304;-78
2023/03/24 04:15:11;;;;;;;27.13;20.10;;;;;;;;;;732602;190;629645;-79
2023/03/24 04:17:52;;;;;;;30.80;20.40;;;;;;;;;;729197;192;625037;-79
2023/03/24 04:20:21;;;;;;;26.70;19.07;;;;;;;;;;740359;186;633769;-79
2023/03/24 04:22:55;;;;;;;30.87;20.50;;;;;;;;;;731776;188;636396;-79
2023/03/24 04:25:26;;;;;;;25.97;19.53;;;;;;;;;;736409;187;633824;-81
2023/03/24 04:27:55;;;;;;;28.03;20.33;;;;;;;;;;735667;190;631833;-80
2023/03/24 04:30:23;;;;;;;29.77;20.77;;;;;;;;;;732136;191;630638;-80
2023/03/24 04:32:48;;;;;;;27.00;19.27;;;;;;;;;;729768;190;633261;-81
2023/03/24 04:35:19;;;;;;;27.57;19.30;;;;;;;;;;732092;191;647359;-80
2023/03/24 04:37:43;;;;;;;28.20;19.40;;;;;;;;;;729879;190;651114;-81
2023/03/24 04:40:10;;;;;;;32.10;20.17;;;;;;;;;;727674;190;672398;-79
2023/03/24 04:42:36;;;;;;;26.90;19.83;;;;;;;;;;729683;191;687588;-78
2023/03/24 04:45:02;;;;;;;26.20;17.20;;;;;;;;;;735158;191;627233;-80
2023/03/24 04:47:30;;;;;;;24.63;17.93;;;;;;;;;;735157;191;727581;-81
2023/03/24 04:50:05;;;;;;;25.33;17.87;;;;;;;;;;730038;190;650487;-81
2023/03/24 04:52:30;;;;;;;25.80;18.17;;;;;;;;;;727141;191;633194;-80
2023/03/24 04:54:56;;;;;;;25.60;19.10;;;;;;;;;;740038;191;616602;-79
2023/03/24 04:57:22;;;;;;;20.10;15.87;;;;;;;;;;725973;190;633832;-79
2023/03/24 04:59:48;;;;;;;21.53;16.97;;;;;;;;;;726763;194;639172;-81
2023/03/24 05:02:14;;;;;;;24.67;18.03;;;;;;;;;;730395;194;631456;-79
2023/03/24 05:04:40;;;;;;;25.13;18.13;;;;;;;;;;726601;193;626070;-80
2023/03/24 05:07:06;;;;;;;31.23;19.97;;;;;;;;;;728735;191;620861;-80
2023/03/24 05:09:31;;;;;;;25.67;20.20;;;;;;;;;;736053;191;622581;-81
2023/03/24 05:11:57;;;;;;;25.97;20.50;;;;;;;;;;734004;190;629849;-78
2023/03/24 05:14:23;;;;;;;27.10;21.67;;;;;;;;;;735843;191;648487;-79
2023/03/24 05:16:49;;;;;;;26.97;20.67;;;;;;;;;;730117;191;637053;-78
2023/03/24 05:19:15;;;;;;;28.27;20.67;;;;;;;;;;730633;191;704195;-78
2023/03/24 05:21:41;;;;;;;24.10;18.67;;;;;;;;;;732821;191;637294;-80
2023/03/24 05:24:06;;;;;;;27.23;20.50;;;;;;;;;;733905;191;627659;-78
2023/03/24 05:26:32;;;;;;;24.63;17.97;;;;;;;;;;737669;193;635725;-78
2023/03/24 05:28:58;;;;;;;24.03;17.30;;;;;;;;;;736053;185;635323;-79
2023/03/24 05:31:24;;;;;;;28.07;18.77;;;;;;;;;;735331;190;628354;-79
2023/03/24 05:33:50;;;;;;;24.23;18.77;;;;;;;;;;732084;191;619614;-79
2023/03/24 05:36:16;;;;;;;26.90;20.50;;;;;;;;;;731484;190;659181;-81
2023/03/24 05:38:41;;;;;;;22.10;17.40;;;;;;;;;;739808;191;630542;-78
2023/03/24 05:41:08;;;;;;;26.83;17.55;;;;;;;;;;742473;190;633938;-80
2023/03/24 05:43:34;;;;;;;23.90;17.70;;;;;;;;;;736349;191;628686;-79
2023/03/24 05:45:59;;;;;;;21.97;17.40;;;;;;;;;;727735;191;650634;-80
2023/03/24 05:48:25;;;;;;;25.90;17.90;;;;;;;;;;732294;191;644854;-80
2023/03/24 05:50:51;;;;;;;19.37;16.00;;;;;;;;;;744039;191;629502;-79
2023/03/24 05:53:17;;;;;;;23.07;16.87;;;;;;;;;;740983;191;623114;-80
2023/03/24 05:55:43;;;;;;;23.57;16.10;;;;;;;;;;730388;193;644316;-78
2023/03/24 05:58:09;;;;;;;24.07;15.50;;;;;;;;;;730670;191;677363;-79
2023/03/24 06:00:34;;;;;;;17.93;14.10;;;;;;;;;;733968;191;652538;-80
2023/03/24 06:03:00;;;;;;;16.27;11.40;;;;;;;;;;734828;191;624045;-80
2023/03/24 06:05:26;;;;;;;17.40;13.60;;;;;;;;;;734860;191;633589;-78
2023/03/24 06:07:57;;;;;;;15.10;12.10;;;;;;;;;;726970;191;673498;-79
2023/03/24 06:10:21;;;;;;;17.93;12.90;;;;;;;;;;726438;191;635608;-80
2023/03/24 06:12:46;;;;;;;19.80;13.73;;;;;;;;;;725691;195;647174;-80
2023/03/24 06:15:16;;;;;;;17.17;14.00;;;;;;;;;;730367;191;628939;-80
2023/03/24 06:17:38;;;;;;;18.87;12.60;;;;;;;;;;728649;190;623255;-77
2023/03/24 06:20:04;;;;;;;16.40;12.80;;;;;;;;;;727130;191;636168;-81
2023/03/24 06:22:31;;;;;;;17.70;12.53;;;;;;;;;;729158;195;627417;-80
2023/03/24 06:24:57;;;;;;;17.73;12.50;;;;;;;;;;734163;191;621276;-78
2023/03/24 06:27:24;;;;;;;19.23;11.67;;;;;;;;;;730366;191;639218;-80
2023/03/24 06:29:48;;;;;;;17.30;12.70;;;;;;;;;;733190;191;629265;-80
2023/03/24 06:32:14;;;;;;;20.00;12.03;;;;;;;;;;725265;195;634321;-83
2023/03/24 06:34:39;;;;;;;15.77;12.60;;;;;;;;;;728720;191;623890;-81
2023/03/24 06:37:05;;;;;;;17.63;12.53;;;;;;;;;;737088;191;627564;-79
2023/03/24 06:39:31;;;;;;;13.47;11.20;;;;;;;;;;738493;191;672763;-81
2023/03/24 06:41:57;;;;;;;17.07;12.13;;;;;;;;;;726282;194;627720;-79
2023/03/24 06:44:23;;;;;;;14.03;11.77;;;;;;;;;;727115;193;625648;-79
2023/03/24 06:46:49;;;;;;;14.07;12.00;;;;;;;;;;731029;194;626174;-81
2023/03/24 06:49:15;;;;;;;42.70;21.80;;;;;;;;;;738780;187;635018;-80
2023/03/24 06:51:40;;;;;;;37.30;21.43;;;;;;;;;;738645;191;623697;-79
2023/03/24 06:54:06;;;;;;;22.20;14.20;;;;;;;;;;741882;188;631366;-81
2023/03/24 06:56:33;;;;;;;15.63;13.70;;;;;;;;;;735930;191;644760;-78
2023/03/24 06:58:58;;;;;;;25.43;16.53;;;;;;;;;;729403;191;629623;-77
2023/03/24 07:01:24;;;;;;;23.80;14.90;;;;;;;;;;739371;190;631042;-77
2023/03/24 07:03:50;;;;;;;15.60;12.17;;;;;;;;;;733900;193;621593;-80
2023/03/24 07:06:17;;;;;;;14.00;10.00;;;;;;;;;;736771;191;620030;-79
2023/03/24 07:08:41;;;;;;;15.33;12.30;;;;;;;;;;727092;194;635530;-77
2023/03/24 07:11:08;;;;;;;19.53;9.80;;;;;;;;;;729371;191;653710;-77
2023/03/24 07:13:33;;;;;;;20.80;16.37;;;;;;;;;;725650;194;633310;-81
2023/03/24 07:15:59;;;;;;;20.53;15.93;;;;;;;;;;727971;191;637391;-81
2023/03/24 07:18:25;;;;;;;77.90;54.17;;;;;;;;;;731307;194;619138;-78
2023/03/24 07:20:51;;;;;;;44.43;28.73;;;;;;;;;;733849;191;630024;-78
2023/03/24 07:23:17;;;;;;;16.33;13.60;;;;;;;;;;727666;191;631850;-79
2023/03/24 07:25:43;;;;;;;23.07;16.03;;;;;;;;;;732347;190;639738;-81
2023/03/24 07:28:09;;;;;;;15.20;11.87;;;;;;;;;;726226;194;623855;-81
2023/03/24 07:30:35;;;;;;;12.50;10.70;;;;;;;;;;735194;190;629756;-82
2023/03/24 07:33:01;;;;;;;12.47;9.93;;;;;;;;;;739877;191;620500;-80
2023/03/24 07:35:27;;;;;;;15.53;10.20;;;;;;;;;;734720;191;630804;-79
2023/03/24 07:37:53;;;;;;;11.20;9.80;;;;;;;;;;727256;194;617563;-81
2023/03/24 07:40:19;;;;;;;12.27;10.13;;;;;;;;;;727095;193;625804;-78
2023/03/24 07:42:46;;;;;;;17.43;10.70;;;;;;;;;;736189;191;620667;-79
2023/03/24 07:45:10;;;;;;;12.97;10.83;;;;;;;;;;726247;191;650670;-79
2023/03/24 07:47:37;;;;;;;15.90;12.03;;;;;;;;;;725585;195;631333;-79
2023/03/24 07:50:04;;;;;;;12.80;10.10;;;;;;;;;;729781;190;654550;-81
2023/03/24 07:52:29;;;;;;;14.67;11.67;;;;;;;;;;737956;189;631513;-80
2023/03/24 07:54:54;;;;;;;15.87;10.20;;;;;;;;;;742047;188;658966;-81
2023/03/24 07:57:20;;;;;;;14.23;10.60;;;;;;;;;;743523;190;654081;-81
2023/03/24 07:59:46;;;;;;;12.50;10.13;;;;;;;;;;745995;190;645721;-81
2023/03/24 08:02:11;;;;;;;13.20;9.80;;;;;;;;;;742180;190;627472;-80
2023/03/24 08:04:37;;;;;;;13.33;10.23;;;;;;;;;;741066;190;636648;-81
2023/03/24 08:07:04;;;;;;;13.03;11.10;;;;;;;;;;733803;190;630115;-81
2023/03/24 08:09:29;;;;;;;13.10;10.60;;;;;;;;;;729054;191;634912;-81
2023/03/24 08:11:55;;;;;;;17.50;11.50;;;;;;;;;;740254;190;630174;-80
2023/03/24 08:14:21;;;;;;;15.87;11.83;;;;;;;;;;729853;190;646873;-81
2023/03/24 08:16:47;;;;;;;15.30;10.60;;;;;;;;;;730507;191;629641;-79
2023/03/24 08:19:12;;;;;;;12.93;10.40;;;;;;;;;;726053;191;711049;-81
2023/03/24 08:21:38;;;;;;;12.87;10.30;;;;;;;;;;730586;191;619338;-79
2023/03/24 08:24:05;;;;;;;13.10;9.57;;;;;;;;;;738490;191;636133;-82
2023/03/24 08:26:33;;;;;;;14.80;9.40;;;;;;;;;;735025;191;628342;-81
2023/03/24 08:28:56;;;;;;;11.30;8.40;;;;;;;;;;727470;191;658556;-81
2023/03/24 08:31:22;;;;;;;15.63;9.17;;;;;;;;;;734725;190;626286;-80
2023/03/24 08:33:48;;;;;;;10.33;8.83;;;;;;;;;;735352;190;643702;-82
2023/03/24 08:36:14;;;;;;;9.50;7.77;;;;;;;;;;737451;190;633407;-82
2023/03/24 08:38:40;;;;;;;9.93;6.97;;;;;;;;;;738510;190;665057;-81
2023/03/24 08:41:07;;;;;;;10.83;8.03;;;;;;;;;;735259;190;893482;-78
2023/03/24 08:43:32;;;;;;;9.47;7.63;;;;;;;;;;733850;191;630664;-82
2023/03/24 08:45:57;;;;;;;8.40;6.30;;;;;;;;;;732439;188;647689;-80
2023/03/24 08:48:23;;;;;;;10.73;7.00;;;;;;;;;;730457;191;646534;-79
2023/03/24 08:50:49;;;;;;;9.90;7.00;;;;;;;;;;727272;191;632793;-80
2023/03/24 08:53:15;;;;;;;7.80;6.00;;;;;;;;;;732008;191;758307;-81
2023/03/24 08:55:42;;;;;;;12.80;7.83;;;;;;;;;;729687;191;697253;-79
2023/03/24 08:58:07;;;;;;;10.07;7.50;;;;;;;;;;726895;191;619129;-81
2023/03/24 09:00:33;;;;;;;9.77;6.83;;;;;;;;;;732188;191;617380;-80
2023/03/24 09:02:59;;;;;;;9.57;6.80;;;;;;;;;;729783;191;631262;-80
2023/03/24 09:05:25;;;;;;;9.87;7.57;;;;;;;;;;726415;191;636389;-81
2023/03/24 09:07:51;;;;;;;9.90;7.33;;;;;;;;;;728243;192;625339;-81
2023/03/24 09:10:16;;;;;;;8.77;7.20;;;;;;;;;;729589;190;634656;-79
2023/03/24 09:12:42;;;;;;;10.20;8.37;;;;;;;;;;735596;191;640027;-79
2023/03/24 09:15:08;;;;;;;9.20;6.97;;;;;;;;;;732143;191;749565;-79
2023/03/24 09:17:34;;;;;;;8.70;7.47;;;;;;;;;;730386;191;825039;-82
2023/03/24 09:19:59;;;;;;;9.73;8.50;;;;;;;;;;730923;191;623017;-80
2023/03/24 09:22:25;;;;;;;9.87;7.77;;;;;;;;;;729789;191;648487;-81
2023/03/24 09:24:51;;;;;;;11.80;8.07;;;;;;;;;;727350;192;625941;-79
2023/03/24 09:27:17;;;;;;;10.77;8.60;;;;;;;;;;736586;191;775622;-80
2023/03/24 09:29:43;;;;;;;9.60;8.60;;;;;;;;;;727169;191;644028;-81
2023/03/24 09:32:09;;;;;;;9.93;7.67;;;;;;;;;;727016;191;636014;-81
2023/03/24 09:34:37;;;;;;;11.10;7.60;;;;;;;;;;727332;191;632127;-79
2023/03/24 09:37:00;;;;;;;10.23;6.67;;;;;;;;;;734849;191;626957;-80
2023/03/24 09:39:26;;;;;;;9.20;6.70;;;;;;;;;;736770;191;624180;-81
2023/03/24 09:41:52;;;;;;;6.57;5.60;;;;;;;;;;737537;190;639833;-80
2023/03/24 09:44:18;;;;;;;8.57;6.60;;;;;;;;;;734453;190;624675;-79
2023/03/24 09:46:46;;;;;;;7.70;5.83;;;;;;;;;;731315;191;695644;-79
2023/03/24 09:49:11;;;;;;;8.40;5.87;;;;;;;;;;730335;191;639831;-81
2023/03/24 09:51:37;;;;;;;9.70;6.00;;;;;;;;;;735828;191;652278;-82
2023/03/24 09:54:10;;;;;;;7.20;5.13;;;;;;;;;;729708;191;705988;-81
2023/03/24 09:56:36;;;;;;;7.07;5.20;;;;;;;;;;728268;191;663772;-78
2023/03/24 09:59:05;;;;;;;10.00;5.33;;;;;;;;;;734355;191;636139;-80
2023/03/24 10:01:31;;;;;;;9.20;4.83;;;;;;;;;;729500;193;626065;-81
2023/03/24 10:03:57;;;;;;;6.83;5.00;;;;;;;;;;736393;191;636344;-80
2023/03/24 10:06:24;;;;;;;6.60;4.43;;;;;;;;;;733926;190;625741;-80
2023/03/24 10:08:49;;;;;;;6.78;4.90;;;;;;;;;;733739;191;646123;-81
2023/03/24 10:11:20;;;;;;;10.03;5.83;;;;;;;;;;730792;190;632702;-81
2023/03/24 10:13:51;;;;;;;9.63;4.73;;;;;;;;;;725754;194;626180;-81
2023/03/24 10:16:30;;;;;;;6.20;4.40;;;;;;;;;;732887;190;746951;-81
2023/03/24 10:18:56;;;;;;;8.73;5.20;;;;;;;;;;740340;189;629265;-81
2023/03/24 10:21:22;;;;;;;9.53;5.17;;;;;;;;;;739112;191;632930;-78
2023/03/24 10:23:54;;;;;;;6.63;4.97;;;;;;;;;;738062;191;727701;-78
2023/03/24 10:26:23;;;;;;;6.67;5.20;;;;;;;;;;736059;191;634238;-80
2023/03/24 10:28:51;;;;;;;6.80;4.47;;;;;;;;;;738159;191;623741;-79
2023/03/24 10:31:16;;;;;;;6.63;4.97;;;;;;;;;;737237;191;626154;-81
2023/03/24 10:33:41;;;;;;;8.70;5.23;;;;;;;;;;731905;190;625787;-81
2023/03/24 10:36:08;;;;;;;9.93;5.00;;;;;;;;;;737897;191;660137;-81
2023/03/24 10:38:34;;;;;;;8.00;5.30;;;;;;;;;;738113;191;637546;-78
2023/03/24 10:40:59;;;;;;;7.20;5.30;;;;;;;;;;741163;191;625989;-79
2023/03/24 10:43:25;;;;;;;9.00;5.07;;;;;;;;;;732541;191;636986;-78
2023/03/24 10:45:51;;;;;;;7.00;5.23;;;;;;;;;;728723;190;632832;-78
2023/03/24 10:48:23;;;;;;;9.77;5.53;;;;;;;;;;734437;191;652748;-79
2023/03/24 10:50:48;;;;;;;7.17;5.57;;;;;;;;;;732867;191;655618;-78
2023/03/24 10:53:14;;;;;;;7.83;5.47;;;;;;;;;;737745;191;616044;-79
2023/03/24 10:55:42;;;;;;;8.30;5.40;;;;;;;;;;738331;191;631054;-82
2023/03/24 10:58:07;;;;;;;9.13;5.87;;;;;;;;;;725301;195;617312;-81
2023/03/24 11:00:33;;;;;;;8.57;5.70;;;;;;;;;;725019;191;625321;-81
2023/03/24 11:02:58;;;;;;;10.20;7.07;;;;;;;;;;732001;191;659080;-78
2023/03/24 11:05:28;;;;;;;8.03;6.13;;;;;;;;;;740050;188;637373;-79
2023/03/24 11:07:52;;;;;;;6.77;5.70;;;;;;;;;;724778;195;642752;-81
2023/03/24 11:10:17;;;;;;;8.03;6.10;;;;;;;;;;725475;195;648277;-81
2023/03/24 11:12:42;;;;;;;10.73;6.87;;;;;;;;;;739834;191;636890;-81
2023/03/24 11:15:15;;;;;;;9.20;6.57;;;;;;;;;;737182;191;653301;-79
2023/03/24 11:17:41;;;;;;;7.17;5.63;;;;;;;;;;735941;191;658930;-80
2023/03/24 11:20:07;;;;;;;7.47;5.60;;;;;;;;;;731475;191;642488;-79
2023/03/24 11:22:32;;;;;;;10.70;5.50;;;;;;;;;;738068;191;616442;-80
2023/03/24 11:24:57;;;;;;;8.30;6.17;;;;;;;;;;731657;191;640518;-78
2023/03/24 11:27:23;;;;;;;7.63;5.33;;;;;;;;;;728859;191;653413;-80
2023/03/24 11:29:49;;;;;;;9.87;6.17;;;;;;;;;;730825;191;662047;-79
2023/03/24 11:32:15;;;;;;;9.80;5.50;;;;;;;;;;729273;191;650843;-80
2023/03/24 11:34:44;;;;;;;10.37;5.60;;;;;;;;;;738058;190;672981;-81
2023/03/24 11:37:11;;;;;;;9.90;6.40;;;;;;;;;;732885;191;651785;-81
2023/03/24 11:39:37;;;;;;;6.03;5.00;;;;;;;;;;729399;191;650508;-82
2023/03/24 11:42:04;;;;;;;7.10;5.30;;;;;;;;;;733436;191;640623;-81
2023/03/24 11:44:31;;;;;;;8.33;6.27;;;;;;;;;;725609;195;643747;-80
2023/03/24 11:46:58;;;;;;;8.80;5.67;;;;;;;;;;733350;190;639785;-80
2023/03/24 11:49:26;;;;;;;8.30;6.27;;;;;;;;;;732113;191;627321;-81
2023/03/24 11:51:52;;;;;;;6.87;5.40;;;;;;;;;;729797;190;648607;-78
2023/03/24 11:54:18;;;;;;;7.97;5.67;;;;;;;;;;730700;191;644891;-79
2023/03/24 11:56:45;;;;;;;7.43;5.20;;;;;;;;;;738757;191;619485;-79
2023/03/24 11:59:16;;;;;;;9.40;5.03;;;;;;;;;;732102;191;684481;-81
2023/03/24 12:01:42;;;;;;;7.93;5.03;;;;;;;;;;733579;190;638436;-80
2023/03/24 12:04:25;;;;;;;6.23;5.20;;;;;;;;;;734303;190;664366;-80
2023/03/24 12:06:57;;;;;;;9.80;5.80;;;;;;;;;;736778;190;625793;-78
2023/03/24 12:09:26;;;;;;;9.90;5.93;;;;;;;;;;719387;195;646049;-80
2023/03/24 12:12:04;;;;;;;10.00;5.53;;;;;;;;;;734442;191;660645;-80
2023/03/24 12:14:30;;;;;;;6.03;5.07;;;;;;;;;;731403;191;628898;-80
2023/03/24 12:16:56;;;;;;;8.80;4.90;;;;;;;;;;728405;191;622188;-78
2023/03/24 12:19:39;;;;;;;6.80;5.63;;;;;;;;;;730988;191;655276;-80
2023/03/24 12:22:09;;;;;;;6.83;5.93;;;;;;;;;;738490;191;653644;-81
2023/03/24 12:24:39;;;;;;;10.53;5.70;;;;;;;;;;734263;190;633567;-79
2023/03/24 12:27:05;;;;;;;7.13;5.57;;;;;;;;;;727716;190;635451;-78
2023/03/24 12:29:44;;;;;;;14.80;6.07;;;;;;;;;;730364;190;628468;-75
2023/03/24 12:32:28;;;;;;;8.17;6.00;;;;;;;;;;730080;191;631812;-81
2023/03/24 12:34:54;;;;;;;5.23;4.40;;;;;;;;;;740967;189;633742;-79
2023/03/24 12:37:25;;;;;;;10.10;5.20;;;;;;;;;;737698;191;630976;-81
2023/03/24 12:39:57;;;;;;;8.37;5.10;;;;;;;;;;729006;191;626254;-78
2023/03/24 12:42:23;;;;;;;7.00;4.83;;;;;;;;;;737888;190;627257;-79
2023/03/24 12:44:49;;;;;;;6.77;5.50;;;;;;;;;;731844;190;633802;-80
2023/03/24 12:47:21;;;;;;;9.73;4.80;;;;;;;;;;736956;190;642554;-81
2023/03/24 12:49:49;;;;;;;8.37;6.20;;;;;;;;;;735153;190;657624;-78
2023/03/24 12:52:20;;;;;;;6.53;4.87;;;;;;;;;;735420;190;631945;-77
2023/03/24 12:54:49;;;;;;;10.30;6.20;;;;;;;;;;727232;190;640321;-80
2023/03/24 12:57:15;;;;;;;8.50;5.10;;;;;;;;;;732566;191;712621;-80
2023/03/24 12:59:43;;;;;;;7.23;5.57;;;;;;;;;;733058;190;640180;-79
2023/03/24 13:02:11;;;;;;;13.00;5.20;;;;;;;;;;735484;191;649894;-78
2023/03/24 13:04:37;;;;;;;10.83;5.53;;;;;;;;;;729930;191;642942;-78
2023/03/24 13:07:06;;;;;;;10.60;6.13;;;;;;;;;;737229;190;658780;-78
2023/03/24 13:09:39;;;;;;;8.03;5.20;;;;;;;;;;727479;191;640279;-79
2023/03/24 13:12:07;;;;;;;10.00;5.97;;;;;;;;;;732729;191;630273;-80
2023/03/24 13:14:33;;;;;;;8.10;5.20;;;;;;;;;;735804;190;631140;-81
2023/03/24 13:17:02;;;;;;;7.07;5.40;;;;;;;;;;734346;191;631333;-79
2023/03/24 13:19:27;;;;;;;50.93;7.00;;;;;;;;;;734890;190;631771;-79
2023/03/24 13:21:53;;;;;;;7.93;5.80;;;;;;;;;;735767;190;698676;-79
2023/03/24 13:24:19;;;;;;;9.47;5.50;;;;;;;;;;737032;190;623592;-78
2023/03/24 13:26:50;;;;;;;8.07;6.27;;;;;;;;;;728978;191;623890;-80
2023/03/24 13:29:32;;;;;;;7.33;5.83;;;;;;;;;;735111;188;632131;-78
2023/03/24 13:31:59;;;;;;;9.33;6.20;;;;;;;;;;730901;191;635144;-81
2023/03/24 13:34:27;;;;;;;10.00;5.73;;;;;;;;;;729646;190;637675;-81
2023/03/24 13:36:54;;;;;;;8.40;5.83;;;;;;;;;;739276;191;632110;-78
2023/03/24 13:39:19;;;;;;;8.90;6.07;;;;;;;;;;733831;191;634030;-78
2023/03/24 13:41:45;;;;;;;9.23;5.90;;;;;;;;;;732344;190;629626;-80
2023/03/24 13:44:15;;;;;;;8.23;5.67;;;;;;;;;;736946;190;618919;-79
2023/03/24 13:46:40;;;;;;;8.60;6.40;;;;;;;;;;732340;191;635925;-78
2023/03/24 13:49:07;;;;;;;9.20;6.20;;;;;;;;;;738083;191;665208;-80
2023/03/24 13:51:33;;;;;;;8.20;5.83;;;;;;;;;;729383;191;624158;-79
2023/03/24 13:53:59;;;;;;;11.20;6.57;;;;;;;;;;731688;191;632911;-78
2023/03/24 13:56:30;;;;;;;10.27;7.00;;;;;;;;;;737290;190;630110;-80
2023/03/24 13:59:06;;;;;;;16.23;7.70;;;;;;;;;;729310;191;652147;-79
2023/03/24 14:01:32;;;;;;;9.67;6.63;;;;;;;;;;736762;191;641867;-81
2023/03/24 14:04:04;;;;;;;9.47;7.50;;;;;;;;;;736697;190;624151;-81
2023/03/24 14:06:35;;;;;;;10.70;6.80;;;;;;;;;;734615;192;634818;-79
2023/03/24 14:09:01;;;;;;;11.10;7.53;;;;;;;;;;731890;190;633230;-78
2023/03/24 14:11:48;;;;;;;10.53;7.20;;;;;;;;;;727419;191;646335;-78
2023/03/24 14:14:28;;;;;;;8.67;7.30;;;;;;;;;;730939;190;679284;-82